createdAt,value
2017-11-14T00:00:04.009Z,5.59
2017-11-14T00:01:03.680Z,5.59
2017-11-14T00:02:04.366Z,5.53
2017-11-14T00:03:04.379Z,5.61
2017-11-14T00:04:04.403Z,5.61
2017-11-14T00:05:04.395Z,5.61
2017-11-14T00:06:04.411Z,5.53
2017-11-14T00:07:04.423Z,5.65
2017-11-14T00:08:04.441Z,5.54
2017-11-14T00:09:04.109Z,5.59
2017-11-14T00:10:04.466Z,5.61
2017-11-14T00:11:04.482Z,5.59
2017-11-14T00:12:04.501Z,5.57
2017-11-14T00:13:04.497Z,5.64
2017-11-14T00:14:04.183Z,5.5
2017-11-14T00:15:04.532Z,5.62
2017-11-14T00:16:04.192Z,5.48
2017-11-14T00:17:04.204Z,5.53
2017-11-14T00:18:04.567Z,5.61
2017-11-14T00:19:04.225Z,5.5
2017-11-14T00:20:04.576Z,5.62
2017-11-14T00:21:04.596Z,5.5
2017-11-14T00:22:04.267Z,5.57
2017-11-14T00:23:04.270Z,5.5
2017-11-14T00:24:04.621Z,5.5
2017-11-14T00:25:04.633Z,5.61
2017-11-14T00:26:04.633Z,5.57
2017-11-14T00:27:04.654Z,5.48
2017-11-14T00:28:04.332Z,5.59
2017-11-14T00:29:04.676Z,5.57
2017-11-14T00:30:04.694Z,5.47
2017-11-14T00:31:04.700Z,5.5
2017-11-14T00:32:04.372Z,5.5
2017-11-14T00:33:04.046Z,5.53
2017-11-14T00:34:04.391Z,5.5
2017-11-14T00:35:04.410Z,5.47
2017-11-14T00:36:04.751Z,5.57
2017-11-14T00:37:04.764Z,5.5
2017-11-14T00:38:04.774Z,5.61
2017-11-14T00:39:04.785Z,5.62
2017-11-14T00:40:04.457Z,5.51
2017-11-14T00:41:04.812Z,5.59
2017-11-14T00:42:04.823Z,5.53
2017-11-14T00:43:04.496Z,5.5
2017-11-14T00:44:04.501Z,5.57
2017-11-14T00:45:04.853Z,5.57
2017-11-14T00:46:04.879Z,5.57
2017-11-14T00:47:04.535Z,5.54
2017-11-14T00:48:04.882Z,5.59
2017-11-14T00:49:04.584Z,5.59
2017-11-14T00:50:04.567Z,5.54
2017-11-14T00:51:04.581Z,5.54
2017-11-14T00:52:04.924Z,5.57
2017-11-14T00:53:04.948Z,5.59
2017-11-14T00:54:04.950Z,5.57
2017-11-14T00:55:04.956Z,5.61
2017-11-14T00:56:04.984Z,5.56
2017-11-14T00:57:04.980Z,5.53
2017-11-14T00:58:04.997Z,5.54
2017-11-14T00:59:04.671Z,5.59
2017-11-14T01:00:04.693Z,5.61
2017-11-14T01:01:05.020Z,5.59
2017-11-14T01:02:05.039Z,5.57
2017-11-14T01:03:04.376Z,5.54
2017-11-14T01:04:04.393Z,5.59
2017-11-14T01:05:05.073Z,5.53
2017-11-14T01:06:04.424Z,5.5
2017-11-14T01:07:04.758Z,5.48
2017-11-14T01:08:05.103Z,5.48
2017-11-14T01:09:05.117Z,5.53
2017-11-14T01:10:04.788Z,5.54
2017-11-14T01:11:04.802Z,5.53
2017-11-14T01:12:05.149Z,5.51
2017-11-14T01:13:04.843Z,5.46
2017-11-14T01:14:05.171Z,5.47
2017-11-14T01:15:04.841Z,5.43
2017-11-14T01:16:04.851Z,5.5
2017-11-14T01:17:04.528Z,5.47
2017-11-14T01:18:05.218Z,5.43
2017-11-14T01:19:05.229Z,5.46
2017-11-14T01:20:04.902Z,5.44
2017-11-14T01:21:05.251Z,5.47
2017-11-14T01:22:04.945Z,5.46
2017-11-14T01:23:04.931Z,5.41
2017-11-14T01:24:05.282Z,5.5
2017-11-14T01:25:05.326Z,5.36
2017-11-14T01:26:05.323Z,5.44
2017-11-14T01:27:04.985Z,5.41
2017-11-14T01:28:05.325Z,5.53
2017-11-14T01:29:05.340Z,5.47
2017-11-14T01:30:05.356Z,5.48
2017-11-14T01:31:05.373Z,5.46
2017-11-14T01:32:05.032Z,5.5
2017-11-14T01:33:05.040Z,5.46
2017-11-14T01:34:05.407Z,5.44
2017-11-14T01:35:05.407Z,5.39
2017-11-14T01:36:05.418Z,5.43
2017-11-14T01:37:05.415Z,5.41
2017-11-14T01:38:05.105Z,5.38
2017-11-14T01:39:05.469Z,5.43
2017-11-14T01:40:05.122Z,5.43
2017-11-14T01:41:05.129Z,5.35
2017-11-14T01:42:05.466Z,5.44
2017-11-14T01:43:05.138Z,5.41
2017-11-14T01:44:05.168Z,5.44
2017-11-14T01:45:04.832Z,5.39
2017-11-14T01:46:05.723Z,5.38
2017-11-14T01:47:04.852Z,5.41
2017-11-14T01:48:05.542Z,5.44
2017-11-14T01:49:05.221Z,5.38
2017-11-14T01:50:05.568Z,5.44
2017-11-14T01:51:05.570Z,5.43
2017-11-14T01:52:05.593Z,5.39
2017-11-14T01:53:04.925Z,5.41
2017-11-14T01:54:05.606Z,5.39
2017-11-14T01:55:04.941Z,5.46
2017-11-14T01:56:05.630Z,5.39
2017-11-14T01:57:05.296Z,5.44
2017-11-14T01:58:05.306Z,5.41
2017-11-14T01:59:05.325Z,5.44
2017-11-14T02:00:05.343Z,5.43
2017-11-14T02:01:05.336Z,5.44
2017-11-14T02:02:05.372Z,5.44
2017-11-14T02:03:05.696Z,5.44
2017-11-14T02:04:05.385Z,5.44
2017-11-14T02:05:05.048Z,5.38
2017-11-14T02:06:05.734Z,5.41
2017-11-14T02:07:05.748Z,5.44
2017-11-14T02:08:05.762Z,5.44
2017-11-14T02:09:05.766Z,5.43
2017-11-14T02:10:05.129Z,5.39
2017-11-14T02:11:05.491Z,5.44
2017-11-14T02:12:05.126Z,5.41
2017-11-14T02:13:05.473Z,5.44
2017-11-14T02:14:05.828Z,5.43
2017-11-14T02:15:05.841Z,5.46
2017-11-14T02:16:05.883Z,5.43
2017-11-14T02:17:05.865Z,5.47
2017-11-14T02:18:06.208Z,5.39
2017-11-14T02:19:05.917Z,5.48
2017-11-14T02:20:05.240Z,5.44
2017-11-14T02:21:05.893Z,5.48
2017-11-14T02:22:05.574Z,5.47
2017-11-14T02:23:05.917Z,5.48
2017-11-14T02:24:05.943Z,5.5
2017-11-14T02:25:05.956Z,5.47
2017-11-14T02:26:05.616Z,5.48
2017-11-14T02:27:05.961Z,5.44
2017-11-14T02:28:05.968Z,5.48
2017-11-14T02:29:05.651Z,5.48
2017-11-14T02:30:05.997Z,5.46
2017-11-14T02:31:05.666Z,5.41
2017-11-14T02:32:05.688Z,5.47
2017-11-14T02:33:06.028Z,5.44
2017-11-14T02:34:05.736Z,5.48
2017-11-14T02:35:06.047Z,5.5
2017-11-14T02:36:05.722Z,5.46
2017-11-14T02:37:06.071Z,5.39
2017-11-14T02:38:05.751Z,5.48
2017-11-14T02:39:05.759Z,5.48
2017-11-14T02:40:06.116Z,5.5
2017-11-14T02:41:06.111Z,5.41
2017-11-14T02:42:06.135Z,5.51
2017-11-14T02:43:05.801Z,5.47
2017-11-14T02:44:05.808Z,5.46
2017-11-14T02:45:05.827Z,5.46
2017-11-14T02:46:05.837Z,5.59
2017-11-14T02:47:05.838Z,5.48
2017-11-14T02:48:05.873Z,5.5
2017-11-14T02:49:06.215Z,5.5
2017-11-14T02:50:05.598Z,5.48
2017-11-14T02:51:06.232Z,5.48
2017-11-14T02:52:05.919Z,5.54
2017-11-14T02:53:05.903Z,5.47
2017-11-14T02:54:05.582Z,5.5
2017-11-14T02:55:05.931Z,5.53
2017-11-14T02:56:05.942Z,5.48
2017-11-14T02:57:06.291Z,5.53
2017-11-14T02:58:06.300Z,5.48
2017-11-14T02:59:06.311Z,5.5
2017-11-14T03:00:06.329Z,5.5
2017-11-14T03:01:06.100Z,5.56
2017-11-14T03:02:06.018Z,5.57
2017-11-14T03:03:06.360Z,5.51
2017-11-14T03:04:06.359Z,5.57
2017-11-14T03:05:06.384Z,5.51
2017-11-14T03:06:06.055Z,5.5
2017-11-14T03:07:06.434Z,5.57
2017-11-14T03:08:06.069Z,5.53
2017-11-14T03:09:06.425Z,5.59
2017-11-14T03:10:06.094Z,5.53
2017-11-14T03:11:06.435Z,5.54
2017-11-14T03:12:06.113Z,5.54
2017-11-14T03:13:06.128Z,5.57
2017-11-14T03:14:06.475Z,5.56
2017-11-14T03:15:06.486Z,5.62
2017-11-14T03:16:06.491Z,5.54
2017-11-14T03:17:06.178Z,5.51
2017-11-14T03:18:06.520Z,5.53
2017-11-14T03:19:06.524Z,5.51
2017-11-14T03:20:06.203Z,5.57
2017-11-14T03:21:06.207Z,5.47
2017-11-14T03:22:06.226Z,5.53
2017-11-14T03:23:06.607Z,5.59
2017-11-14T03:24:06.246Z,5.5
2017-11-14T03:25:06.601Z,5.59
2017-11-14T03:26:06.290Z,5.51
2017-11-14T03:27:06.611Z,5.57
2017-11-14T03:28:06.630Z,5.65
2017-11-14T03:29:06.633Z,5.48
2017-11-14T03:30:06.660Z,5.56
2017-11-14T03:31:06.670Z,5.61
2017-11-14T03:32:06.342Z,5.57
2017-11-14T03:33:06.342Z,5.64
2017-11-14T03:34:06.689Z,5.56
2017-11-14T03:35:06.709Z,5.54
2017-11-14T03:36:06.724Z,5.57
2017-11-14T03:37:06.740Z,5.59
2017-11-14T03:38:06.733Z,5.51
2017-11-14T03:39:06.750Z,5.53
2017-11-14T03:40:06.760Z,5.51
2017-11-14T03:41:06.434Z,5.54
2017-11-14T03:42:06.778Z,5.59
2017-11-14T03:43:06.497Z,5.54
2017-11-14T03:44:06.464Z,5.54
2017-11-14T03:45:06.815Z,5.61
2017-11-14T03:46:06.482Z,5.53
2017-11-14T03:47:06.844Z,5.59
2017-11-14T03:48:06.845Z,5.57
2017-11-14T03:49:06.877Z,5.57
2017-11-14T03:50:06.876Z,5.57
2017-11-14T03:51:06.554Z,5.59
2017-11-14T03:52:06.559Z,5.57
2017-11-14T03:53:06.565Z,5.59
2017-11-14T03:54:06.908Z,5.61
2017-11-14T03:55:06.924Z,5.61
2017-11-14T03:56:06.257Z,5.59
2017-11-14T03:57:06.948Z,5.59
2017-11-14T03:58:06.953Z,5.66
2017-11-14T03:59:06.976Z,5.62
2017-11-14T04:00:06.639Z,5.61
2017-11-14T04:01:06.314Z,5.61
2017-11-14T04:02:06.662Z,5.64
2017-11-14T04:03:06.336Z,5.57
2017-11-14T04:04:07.041Z,5.56
2017-11-14T04:05:07.038Z,5.57
2017-11-14T04:06:06.369Z,5.64
2017-11-14T04:07:07.128Z,5.65
2017-11-14T04:08:07.065Z,5.56
2017-11-14T04:09:06.731Z,5.62
2017-11-14T04:10:07.083Z,5.57
2017-11-14T04:11:07.104Z,5.62
2017-11-14T04:12:07.129Z,5.61
2017-11-14T04:13:07.130Z,5.62
2017-11-14T04:14:06.807Z,5.51
2017-11-14T04:15:07.139Z,5.59
2017-11-14T04:16:07.159Z,5.64
2017-11-14T04:17:06.490Z,5.53
2017-11-14T04:18:06.840Z,5.57
2017-11-14T04:19:06.843Z,5.59
2017-11-14T04:20:07.214Z,5.53
2017-11-14T04:21:06.881Z,5.56
2017-11-14T04:22:06.970Z,5.5
2017-11-14T04:23:06.911Z,5.51
2017-11-14T04:24:07.275Z,5.53
2017-11-14T04:25:06.913Z,5.54
2017-11-14T04:26:07.260Z,5.5
2017-11-14T04:27:07.295Z,5.51
2017-11-14T04:28:07.284Z,5.57
2017-11-14T04:29:06.616Z,5.64
2017-11-14T04:30:06.968Z,5.61
2017-11-14T04:31:06.638Z,5.57
2017-11-14T04:32:06.991Z,5.51
2017-11-14T04:33:07.335Z,5.48
2017-11-14T04:34:07.344Z,5.59
2017-11-14T04:35:07.372Z,5.61
2017-11-14T04:36:07.082Z,5.5
2017-11-14T04:37:07.049Z,5.56
2017-11-14T04:38:07.390Z,5.59
2017-11-14T04:39:07.066Z,5.51
2017-11-14T04:40:07.417Z,5.47
2017-11-14T04:41:07.435Z,5.5
2017-11-14T04:42:07.434Z,5.54
2017-11-14T04:43:07.441Z,5.47
2017-11-14T04:44:07.464Z,5.5
2017-11-14T04:45:07.132Z,5.57
2017-11-14T04:46:07.140Z,5.53
2017-11-14T04:47:07.152Z,5.5
2017-11-14T04:48:07.167Z,5.51
2017-11-14T04:49:07.510Z,5.54
2017-11-14T04:50:07.183Z,5.51
2017-11-14T04:51:07.530Z,5.57
2017-11-14T04:52:07.216Z,5.57
2017-11-14T04:53:07.551Z,5.59
2017-11-14T04:54:07.228Z,5.53
2017-11-14T04:55:07.587Z,5.57
2017-11-14T04:56:07.257Z,5.53
2017-11-14T04:57:07.597Z,5.46
2017-11-14T04:58:07.612Z,5.56
2017-11-14T04:59:07.287Z,5.5
2017-11-14T05:00:07.300Z,5.54
2017-11-14T05:01:07.313Z,5.5
2017-11-14T05:02:07.313Z,5.46
2017-11-14T05:03:07.681Z,5.53
2017-11-14T05:04:07.006Z,5.48
2017-11-14T05:05:07.683Z,5.48
2017-11-14T05:06:07.358Z,5.5
2017-11-14T05:07:07.377Z,5.51
2017-11-14T05:08:07.380Z,5.51
2017-11-14T05:09:07.735Z,5.44
2017-11-14T05:10:07.739Z,5.44
2017-11-14T05:11:07.746Z,5.44
2017-11-14T05:12:07.425Z,5.47
2017-11-14T05:13:07.778Z,5.46
2017-11-14T05:14:07.449Z,5.5
2017-11-14T05:15:07.233Z,5.43
2017-11-14T05:16:07.801Z,5.54
2017-11-14T05:17:07.495Z,5.43
2017-11-14T05:18:07.829Z,5.51
2017-11-14T05:19:07.843Z,5.53
2017-11-14T05:20:07.850Z,5.47
2017-11-14T05:21:07.866Z,5.46
2017-11-14T05:22:07.874Z,5.5
2017-11-14T05:23:07.941Z,5.44
2017-11-14T05:24:07.557Z,5.46
2017-11-14T05:25:07.916Z,5.44
2017-11-14T05:26:07.917Z,5.5
2017-11-14T05:27:07.929Z,5.48
2017-11-14T05:28:07.625Z,5.48
2017-11-14T05:29:07.614Z,5.5
2017-11-14T05:30:07.621Z,5.47
2017-11-14T05:31:07.978Z,5.46
2017-11-14T05:32:07.695Z,5.39
2017-11-14T05:33:07.660Z,5.48
2017-11-14T05:34:08.012Z,5.48
2017-11-14T05:35:08.016Z,5.47
2017-11-14T05:36:07.689Z,5.48
2017-11-14T05:37:07.699Z,5.47
2017-11-14T05:38:08.054Z,5.44
2017-11-14T05:39:08.059Z,5.46
2017-11-14T05:40:08.077Z,5.48
2017-11-14T05:41:07.748Z,5.46
2017-11-14T05:42:07.775Z,5.46
2017-11-14T05:43:08.099Z,5.43
2017-11-14T05:44:08.110Z,5.41
2017-11-14T05:45:07.797Z,5.44
2017-11-14T05:46:07.459Z,5.43
2017-11-14T05:47:08.151Z,5.44
2017-11-14T05:48:07.817Z,5.39
2017-11-14T05:49:08.165Z,5.46
2017-11-14T05:50:07.839Z,5.38
2017-11-14T05:51:07.854Z,5.41
2017-11-14T05:52:07.873Z,5.39
2017-11-14T05:53:08.210Z,5.41
2017-11-14T05:54:08.227Z,5.43
2017-11-14T05:55:07.557Z,5.38
2017-11-14T05:56:07.909Z,5.43
2017-11-14T05:57:08.250Z,5.46
2017-11-14T05:58:08.265Z,5.44
2017-11-14T05:59:08.277Z,5.43
2017-11-14T06:00:07.615Z,5.38
2017-11-14T06:01:08.299Z,5.44
2017-11-14T06:02:08.280Z,5.44
2017-11-14T06:03:07.983Z,5.38
2017-11-14T06:04:07.994Z,5.38
2017-11-14T06:05:08.005Z,5.44
2017-11-14T06:06:07.684Z,5.43
2017-11-14T06:07:08.358Z,5.44
2017-11-14T06:08:08.381Z,5.44
2017-11-14T06:09:08.390Z,5.41
2017-11-14T06:10:08.397Z,5.43
2017-11-14T06:11:08.077Z,5.44
2017-11-14T06:12:08.414Z,5.43
2017-11-14T06:13:08.430Z,5.35
2017-11-14T06:14:08.446Z,5.36
2017-11-14T06:15:08.463Z,5.46
2017-11-14T06:16:08.458Z,5.32
2017-11-14T06:17:08.486Z,5.35
2017-11-14T06:18:08.480Z,5.35
2017-11-14T06:19:08.167Z,5.33
2017-11-14T06:20:08.508Z,5.39
2017-11-14T06:21:08.512Z,5.41
2017-11-14T06:22:08.186Z,5.46
2017-11-14T06:23:08.533Z,5.44
2017-11-14T06:24:07.876Z,5.41
2017-11-14T06:25:08.556Z,5.44
2017-11-14T06:26:08.233Z,5.39
2017-11-14T06:27:08.577Z,5.43
2017-11-14T06:28:08.591Z,5.41
2017-11-14T06:29:08.606Z,5.41
2017-11-14T06:30:07.942Z,5.41
2017-11-14T06:31:08.618Z,5.48
2017-11-14T06:32:08.636Z,5.53
2017-11-14T06:33:08.650Z,5.5
2017-11-14T06:34:08.322Z,5.44
2017-11-14T06:35:08.333Z,5.46
2017-11-14T06:36:08.679Z,5.47
2017-11-14T06:37:08.355Z,5.5
2017-11-14T06:38:08.374Z,5.47
2017-11-14T06:39:08.371Z,5.51
2017-11-14T06:40:08.390Z,5.51
2017-11-14T06:41:08.410Z,5.5
2017-11-14T06:42:08.744Z,5.5
2017-11-14T06:43:08.754Z,5.59
2017-11-14T06:44:08.772Z,5.5
2017-11-14T06:45:08.441Z,5.54
2017-11-14T06:46:08.452Z,5.59
2017-11-14T06:47:08.801Z,5.51
2017-11-14T06:48:08.810Z,5.5
2017-11-14T06:49:08.844Z,5.62
2017-11-14T06:50:08.833Z,5.56
2017-11-14T06:51:08.505Z,5.62
2017-11-14T06:52:08.519Z,5.48
2017-11-14T06:53:08.862Z,5.54
2017-11-14T06:54:08.541Z,5.5
2017-11-14T06:55:08.887Z,5.53
2017-11-14T06:56:08.579Z,5.48
2017-11-14T06:57:08.566Z,5.5
2017-11-14T06:58:08.914Z,5.47
2017-11-14T06:59:08.943Z,5.46
2017-11-14T07:00:08.939Z,5.46
2017-11-14T07:01:09.005Z,5.43
2017-11-14T07:02:08.959Z,5.41
2017-11-14T07:03:08.977Z,5.48
2017-11-14T07:04:08.986Z,5.5
2017-11-14T07:05:08.992Z,5.44
2017-11-14T07:06:09.018Z,5.43
2017-11-14T07:07:09.018Z,5.46
2017-11-14T07:08:09.025Z,5.47
2017-11-14T07:09:09.044Z,5.38
2017-11-14T07:10:09.072Z,5.44
2017-11-14T07:11:09.055Z,5.41
2017-11-14T07:12:09.080Z,5.44
2017-11-14T07:13:08.414Z,5.41
2017-11-14T07:14:09.096Z,5.38
2017-11-14T07:15:08.768Z,5.46
2017-11-14T07:16:08.444Z,5.38
2017-11-14T07:17:08.791Z,5.3
2017-11-14T07:18:09.137Z,5.32
2017-11-14T07:19:08.818Z,5.36
2017-11-14T07:20:09.155Z,5.38
2017-11-14T07:21:09.176Z,5.32
2017-11-14T07:22:09.179Z,5.32
2017-11-14T07:23:09.190Z,5.3
2017-11-14T07:24:08.857Z,5.33
2017-11-14T07:25:09.220Z,5.3
2017-11-14T07:26:09.231Z,5.3
2017-11-14T07:27:08.897Z,5.25
2017-11-14T07:28:09.277Z,5.33
2017-11-14T07:29:09.263Z,5.38
2017-11-14T07:30:09.261Z,5.32
2017-11-14T07:31:08.941Z,5.29
2017-11-14T07:32:08.948Z,5.3
2017-11-14T07:33:09.300Z,5.3
2017-11-14T07:34:09.314Z,5.36
2017-11-14T07:35:09.320Z,5.33
2017-11-14T07:36:08.995Z,5.3
2017-11-14T07:37:09.003Z,5.3
2017-11-14T07:38:09.353Z,5.35
2017-11-14T07:39:09.365Z,5.29
2017-11-14T07:40:08.702Z,5.33
2017-11-14T07:41:09.387Z,5.38
2017-11-14T07:42:08.722Z,5.38
2017-11-14T07:43:09.073Z,5.35
2017-11-14T07:44:09.081Z,5.32
2017-11-14T07:45:09.427Z,5.41
2017-11-14T07:46:09.103Z,5.43
2017-11-14T07:47:09.445Z,5.38
2017-11-14T07:48:09.464Z,5.46
2017-11-14T07:49:09.131Z,5.47
2017-11-14T07:50:09.480Z,5.43
2017-11-14T07:51:09.500Z,5.38
2017-11-14T07:52:09.172Z,5.43
2017-11-14T07:53:09.515Z,5.41
2017-11-14T07:54:09.546Z,5.43
2017-11-14T07:55:09.197Z,5.47
2017-11-14T07:56:08.868Z,5.38
2017-11-14T07:57:09.215Z,5.38
2017-11-14T07:58:09.586Z,5.43
2017-11-14T07:59:08.903Z,5.44
2017-11-14T08:00:09.586Z,5.46
2017-11-14T08:01:09.264Z,5.43
2017-11-14T08:02:09.273Z,5.47
2017-11-14T08:03:09.628Z,5.46
2017-11-14T08:04:09.633Z,5.46
2017-11-14T08:05:09.640Z,5.53
2017-11-14T08:06:09.655Z,5.46
2017-11-14T08:07:09.663Z,5.54
2017-11-14T08:08:09.337Z,5.46
2017-11-14T08:09:09.345Z,5.46
2017-11-14T08:10:09.692Z,5.48
2017-11-14T08:11:09.369Z,5.48
2017-11-14T08:12:09.727Z,5.51
2017-11-14T08:13:09.739Z,5.59
2017-11-14T08:14:09.404Z,5.56
2017-11-14T08:15:09.760Z,5.56
2017-11-14T08:16:09.424Z,5.57
2017-11-14T08:17:09.775Z,5.57
2017-11-14T08:18:09.779Z,5.5
2017-11-14T08:19:09.795Z,5.53
2017-11-14T08:20:09.470Z,5.53
2017-11-14T08:21:09.825Z,5.57
2017-11-14T08:22:09.823Z,5.51
2017-11-14T08:23:09.522Z,5.48
2017-11-14T08:24:09.509Z,5.53
2017-11-14T08:25:09.863Z,5.57
2017-11-14T08:26:09.865Z,5.61
2017-11-14T08:27:09.546Z,5.56
2017-11-14T08:28:09.551Z,5.57
2017-11-14T08:29:09.564Z,5.62
2017-11-14T08:30:09.575Z,5.57
2017-11-14T08:31:09.585Z,5.61
2017-11-14T08:32:09.927Z,5.61
2017-11-14T08:33:09.939Z,5.62
2017-11-14T08:34:09.960Z,5.56
2017-11-14T08:35:09.968Z,5.68
2017-11-14T08:36:09.661Z,5.65
2017-11-14T08:37:09.650Z,5.66
2017-11-14T08:38:10.010Z,5.65
2017-11-14T08:39:09.671Z,5.65
2017-11-14T08:40:10.016Z,5.66
2017-11-14T08:41:10.037Z,5.71
2017-11-14T08:42:10.042Z,5.64
2017-11-14T08:43:09.719Z,5.69
2017-11-14T08:44:10.075Z,5.68
2017-11-14T08:45:09.730Z,5.68
2017-11-14T08:46:09.768Z,5.73
2017-11-14T08:47:10.104Z,5.82
2017-11-14T08:48:09.432Z,5.76
2017-11-14T08:49:10.114Z,5.8
2017-11-14T08:50:10.143Z,5.8
2017-11-14T08:51:10.146Z,5.9
2017-11-14T08:52:09.817Z,5.87
2017-11-14T08:53:10.161Z,5.93
2017-11-14T08:54:10.177Z,5.89
2017-11-14T08:55:09.845Z,5.83
2017-11-14T08:56:10.191Z,5.93
2017-11-14T08:57:09.868Z,6.04
2017-11-14T08:58:10.223Z,5.98
2017-11-14T08:59:10.243Z,5.98
2017-11-14T09:00:09.563Z,6.02
2017-11-14T09:01:09.907Z,5.97
2017-11-14T09:02:10.265Z,5.99
2017-11-14T09:03:09.944Z,6.05
2017-11-14T09:04:09.951Z,6.05
2017-11-14T09:05:10.301Z,6.11
2017-11-14T09:06:10.311Z,6.05
2017-11-14T09:07:10.311Z,6.07
2017-11-14T09:08:09.989Z,6.11
2017-11-14T09:09:10.340Z,6.19
2017-11-14T09:10:10.351Z,6.17
2017-11-14T09:11:10.358Z,6.17
2017-11-14T09:12:10.371Z,6.22
2017-11-14T09:13:10.387Z,6.16
2017-11-14T09:14:09.738Z,6.27
2017-11-14T09:15:10.400Z,6.22
2017-11-14T09:16:10.423Z,6.24
2017-11-14T09:17:10.472Z,6.35
2017-11-14T09:18:10.100Z,6.33
2017-11-14T09:19:10.450Z,6.36
2017-11-14T09:20:10.117Z,6.42
2017-11-14T09:21:10.129Z,6.46
2017-11-14T09:22:10.149Z,6.48
2017-11-14T09:23:10.493Z,6.51
2017-11-14T09:24:10.511Z,6.59
2017-11-14T09:25:10.174Z,6.59
2017-11-14T09:26:10.530Z,6.51
2017-11-14T09:27:10.533Z,6.52
2017-11-14T09:28:10.559Z,6.6
2017-11-14T09:29:10.220Z,6.62
2017-11-14T09:30:10.568Z,6.62
2017-11-14T09:31:10.593Z,6.62
2017-11-14T09:32:10.587Z,6.6
2017-11-14T09:33:10.612Z,6.63
2017-11-14T09:34:10.279Z,6.75
2017-11-14T09:35:10.631Z,6.69
2017-11-14T09:36:10.296Z,6.79
2017-11-14T09:37:10.700Z,6.7
2017-11-14T09:38:10.662Z,6.77
2017-11-14T09:39:10.678Z,6.75
2017-11-14T09:40:10.677Z,6.75
2017-11-14T09:41:10.713Z,6.79
2017-11-14T09:42:10.701Z,6.78
2017-11-14T09:43:10.385Z,6.77
2017-11-14T09:44:10.391Z,6.84
2017-11-14T09:45:10.406Z,6.87
2017-11-14T09:46:10.090Z,6.85
2017-11-14T09:47:10.755Z,6.92
2017-11-14T09:48:10.433Z,6.92
2017-11-14T09:49:10.781Z,6.95
2017-11-14T09:50:10.823Z,6.87
2017-11-14T09:51:10.814Z,6.93
2017-11-14T09:52:10.506Z,6.95
2017-11-14T09:53:10.834Z,7.02
2017-11-14T09:54:10.504Z,7.03
2017-11-14T09:55:10.846Z,7.03
2017-11-14T09:56:10.534Z,7.03
2017-11-14T09:57:10.537Z,7.02
2017-11-14T09:58:10.880Z,7.05
2017-11-14T09:59:10.890Z,7.03
2017-11-14T10:00:10.907Z,7.06
2017-11-14T10:01:10.915Z,7.07
2017-11-14T10:02:10.936Z,7.05
2017-11-14T10:03:10.950Z,7.17
2017-11-14T10:04:10.956Z,7.21
2017-11-14T10:05:10.959Z,7.11
2017-11-14T10:06:10.973Z,7.17
2017-11-14T10:07:10.983Z,7.13
2017-11-14T10:08:10.663Z,7.21
2017-11-14T10:09:10.338Z,7.2
2017-11-14T10:10:11.023Z,7.18
2017-11-14T10:11:11.030Z,7.23
2017-11-14T10:12:11.055Z,7.2
2017-11-14T10:13:11.111Z,7.25
2017-11-14T10:14:11.099Z,7.36
2017-11-14T10:15:11.085Z,7.28
2017-11-14T10:16:11.093Z,7.35
2017-11-14T10:17:11.126Z,7.33
2017-11-14T10:18:10.773Z,7.38
2017-11-14T10:19:11.140Z,7.4
2017-11-14T10:20:10.804Z,7.42
2017-11-14T10:21:11.150Z,7.39
2017-11-14T10:22:10.861Z,7.4
2017-11-14T10:23:10.840Z,7.51
2017-11-14T10:24:11.186Z,7.48
2017-11-14T10:25:11.205Z,7.5
2017-11-14T10:26:11.210Z,7.51
2017-11-14T10:27:11.229Z,7.6
2017-11-14T10:28:10.943Z,7.66
2017-11-14T10:29:11.250Z,7.69
2017-11-14T10:30:11.273Z,7.54
2017-11-14T10:31:10.928Z,7.73
2017-11-14T10:32:11.273Z,7.75
2017-11-14T10:33:10.954Z,7.75
2017-11-14T10:34:11.299Z,7.79
2017-11-14T10:35:11.314Z,7.79
2017-11-14T10:36:11.326Z,7.82
2017-11-14T10:37:11.337Z,7.87
2017-11-14T10:38:11.025Z,7.91
2017-11-14T10:39:11.405Z,7.98
2017-11-14T10:40:11.372Z,8.01
2017-11-14T10:41:11.392Z,8
2017-11-14T10:42:11.058Z,8.06
2017-11-14T10:43:11.413Z,8.06
2017-11-14T10:44:11.423Z,8.12
2017-11-14T10:45:11.432Z,8.18
2017-11-14T10:46:11.443Z,8.13
2017-11-14T10:47:11.453Z,8.26
2017-11-14T10:48:10.798Z,8.18
2017-11-14T10:49:11.480Z,8.19
2017-11-14T10:50:11.513Z,8.33
2017-11-14T10:51:11.174Z,8.36
2017-11-14T10:52:11.192Z,8.36
2017-11-14T10:53:11.559Z,8.31
2017-11-14T10:54:11.541Z,8.41
2017-11-14T10:55:11.551Z,8.45
2017-11-14T10:56:11.577Z,8.46
2017-11-14T10:57:11.583Z,8.48
2017-11-14T10:58:11.600Z,8.46
2017-11-14T10:59:11.611Z,8.53
2017-11-14T11:00:11.619Z,8.49
2017-11-14T11:01:11.633Z,8.53
2017-11-14T11:02:11.658Z,8.51
2017-11-14T11:03:11.320Z,8.56
2017-11-14T11:04:11.665Z,8.63
2017-11-14T11:05:11.362Z,8.67
2017-11-14T11:06:11.748Z,8.64
2017-11-14T11:07:11.704Z,8.74
2017-11-14T11:08:11.725Z,8.69
2017-11-14T11:09:11.386Z,8.69
2017-11-14T11:10:11.408Z,8.73
2017-11-14T11:11:11.427Z,8.76
2017-11-14T11:12:11.771Z,8.67
2017-11-14T11:13:11.788Z,8.66
2017-11-14T11:14:11.791Z,8.69
2017-11-14T11:15:11.465Z,8.81
2017-11-14T11:16:11.825Z,8.73
2017-11-14T11:17:11.828Z,8.69
2017-11-14T11:18:11.838Z,8.78
2017-11-14T11:19:11.849Z,8.74
2017-11-14T11:20:11.536Z,8.79
2017-11-14T11:21:11.541Z,8.78
2017-11-14T11:22:11.221Z,8.81
2017-11-14T11:23:11.900Z,8.79
2017-11-14T11:24:11.581Z,8.78
2017-11-14T11:25:11.936Z,8.85
2017-11-14T11:26:11.943Z,8.81
2017-11-14T11:27:11.969Z,8.91
2017-11-14T11:28:11.630Z,8.89
2017-11-14T11:29:11.980Z,8.91
2017-11-14T11:30:11.659Z,9.02
2017-11-14T11:31:12.005Z,8.97
2017-11-14T11:32:12.051Z,9.02
2017-11-14T11:33:11.696Z,8.94
2017-11-14T11:34:12.052Z,9.03
2017-11-14T11:35:12.070Z,9.04
2017-11-14T11:36:12.074Z,9.04
2017-11-14T11:37:12.084Z,9
2017-11-14T11:38:11.758Z,9.08
2017-11-14T11:39:12.126Z,9.14
2017-11-14T11:40:12.131Z,9.11
2017-11-14T11:41:12.147Z,9.13
2017-11-14T11:42:11.816Z,9.14
2017-11-14T11:43:12.193Z,9.16
2017-11-14T11:44:12.179Z,9.22
2017-11-14T11:45:12.189Z,9.25
2017-11-14T11:46:12.216Z,9.26
2017-11-14T11:47:11.880Z,9.28
2017-11-14T11:48:12.230Z,9.25
2017-11-14T11:49:12.242Z,9.32
2017-11-14T11:50:12.255Z,9.37
2017-11-14T11:51:12.282Z,9.43
2017-11-14T11:52:11.942Z,9.43
2017-11-14T11:53:12.297Z,9.4
2017-11-14T11:54:11.967Z,9.51
2017-11-14T11:55:11.985Z,9.48
2017-11-14T11:56:12.357Z,9.54
2017-11-14T11:57:12.010Z,9.54
2017-11-14T11:58:12.358Z,9.58
2017-11-14T11:59:12.035Z,9.72
2017-11-14T12:00:12.391Z,9.68
2017-11-14T12:01:12.403Z,9.66
2017-11-14T12:02:12.413Z,9.66
2017-11-14T12:03:12.435Z,9.74
2017-11-14T12:04:12.436Z,9.79
2017-11-14T12:05:12.116Z,9.66
2017-11-14T12:06:12.465Z,9.69
2017-11-14T12:07:12.484Z,9.66
2017-11-14T12:08:12.493Z,9.74
2017-11-14T12:09:12.515Z,9.77
2017-11-14T12:10:12.184Z,9.76
2017-11-14T12:11:12.570Z,9.76
2017-11-14T12:12:12.547Z,9.74
2017-11-14T12:13:12.567Z,9.82
2017-11-14T12:14:12.240Z,9.82
2017-11-14T12:15:12.583Z,9.77
2017-11-14T12:16:12.605Z,9.82
2017-11-14T12:17:12.611Z,9.79
2017-11-14T12:18:12.292Z,9.84
2017-11-14T12:19:12.637Z,9.76
2017-11-14T12:20:12.657Z,9.8
2017-11-14T12:21:12.670Z,9.76
2017-11-14T12:22:12.343Z,9.72
2017-11-14T12:23:12.360Z,9.79
2017-11-14T12:24:12.035Z,9.79
2017-11-14T12:25:12.383Z,9.77
2017-11-14T12:26:12.731Z,9.74
2017-11-14T12:27:12.752Z,9.74
2017-11-14T12:28:12.766Z,9.72
2017-11-14T12:29:12.102Z,9.74
2017-11-14T12:30:12.796Z,9.68
2017-11-14T12:31:12.805Z,9.74
2017-11-14T12:32:12.490Z,9.79
2017-11-14T12:33:12.837Z,9.65
2017-11-14T12:34:12.859Z,9.72
2017-11-14T12:35:12.860Z,9.68
2017-11-14T12:36:12.884Z,9.66
2017-11-14T12:37:12.935Z,9.74
2017-11-14T12:38:12.909Z,9.76
2017-11-14T12:39:12.917Z,9.76
2017-11-14T12:40:12.927Z,9.76
2017-11-14T12:41:12.940Z,9.83
2017-11-14T12:42:12.617Z,9.84
2017-11-14T12:43:12.980Z,9.82
2017-11-14T12:44:12.987Z,9.82
2017-11-14T12:45:12.666Z,9.92
2017-11-14T12:46:12.672Z,9.95
2017-11-14T12:47:12.690Z,9.89
2017-11-14T12:48:12.704Z,9.94
2017-11-14T12:49:13.059Z,9.89
2017-11-14T12:50:12.727Z,9.99
2017-11-14T12:51:12.740Z,9.95
2017-11-14T12:52:13.110Z,9.95
2017-11-14T12:53:13.112Z,10.13
2017-11-14T12:54:13.121Z,10.1
2017-11-14T12:55:12.799Z,10.04
2017-11-14T12:56:13.153Z,10.1
2017-11-14T12:57:13.027Z,10.1
2017-11-14T12:58:12.781Z,10.1
2017-11-14T12:59:13.088Z,10.1
2017-11-14T13:00:12.821Z,10.17
2017-11-14T13:01:12.818Z,10.31
2017-11-14T13:02:13.101Z,10.23
2017-11-14T13:03:13.134Z,10.3
2017-11-14T13:04:13.133Z,10.26
2017-11-14T13:05:13.142Z,10.28
2017-11-14T13:06:13.161Z,10.31
2017-11-14T13:07:13.181Z,10.33
2017-11-14T13:08:13.192Z,10.33
2017-11-14T13:09:13.207Z,10.28
2017-11-14T13:10:12.941Z,10.38
2017-11-14T13:11:13.234Z,10.37
2017-11-14T13:12:13.257Z,10.38
2017-11-14T13:13:13.262Z,10.4
2017-11-14T13:14:13.265Z,10.44
2017-11-14T13:15:13.297Z,10.38
2017-11-14T13:16:13.028Z,10.38
2017-11-14T13:17:13.323Z,10.44
2017-11-14T13:18:13.326Z,10.38
2017-11-14T13:19:13.349Z,10.35
2017-11-14T13:20:13.091Z,10.4